Time;durP1;ratioP1;P1;durP2;ratioP2;P2;SDS_P1;SDS_P2;PMS_P1;PMS_P2;Temp;Humidity;BMP_temperature;BMP_pressure;BME280_temperature;BME280_humidity;BME280_pressure;Samples;Min_cycle;Max_cycle;Signal;HPM_P1;HPM_P2
2022/06/12 00:00:56;;;;;;;0.00;0.00;;;19.90;99.90;;;;;;5009174;28;20029;-72
2022/06/12 00:03:26;;;;;;;0.70;0.68;;;20.10;99.90;;;;;;5009354;28;20034;-73
2022/06/12 00:05:55;;;;;;;0.30;0.30;;;20.20;99.90;;;;;;5009346;28;20065;-73
2022/06/12 00:08:23;;;;;;;0.65;0.60;;;19.90;99.90;;;;;;5009637;28;20053;-72
2022/06/12 00:10:52;;;;;;;2.00;0.93;;;20.10;99.90;;;;;;5008755;28;20068;-73
2022/06/12 00:13:32;;;;;;;1.58;1.08;;;19.50;99.90;;;;;;5009221;28;20034;-72
2022/06/12 00:15:59;;;;;;;0.10;0.10;;;19.50;99.90;;;;;;5009389;28;20113;-72
2022/06/12 00:18:26;;;;;;;0.10;0.10;;;19.50;99.90;;;;;;5010295;28;20437;-73
2022/06/12 00:21:10;;;;;;;0.80;0.63;;;19.50;99.90;;;;;;5010241;28;20026;-73
2022/06/12 00:23:40;;;;;;;1.95;0.88;;;19.30;99.90;;;;;;5013561;28;20030;-73
2022/06/12 00:26:07;;;;;;;0.45;0.45;;;19.20;99.90;;;;;;5013497;28;20474;-73
2022/06/12 00:28:33;;;;;;;1.55;0.80;;;19.20;99.90;;;;;;5013738;28;20544;-73
2022/06/12 00:31:00;;;;;;;0.40;0.40;;;19.30;99.90;;;;;;5013571;28;20478;-72
2022/06/12 00:33:26;;;;;;;0.15;0.15;;;19.60;99.90;;;;;;5014204;28;20438;-73
2022/06/12 00:35:52;;;;;;;1.20;1.10;;;19.80;99.90;;;;;;5012726;28;20394;-72
2022/06/12 00:38:18;;;;;;;0.20;0.20;;;19.90;99.90;;;;;;5014031;28;20038;-72
2022/06/12 00:40:43;;;;;;;0.00;0.00;;;19.90;99.90;;;;;;5013455;28;20176;-72
2022/06/12 00:43:14;;;;;;;7.00;0.47;;;20.00;99.90;;;;;;5014204;28;20556;-72
2022/06/12 00:45:54;;;;;;;0.60;0.60;;;20.10;99.90;;;;;;5014594;28;20162;-72
2022/06/12 00:48:33;;;;;;;0.77;0.55;;;20.20;99.90;;;;;;5012617;28;20042;-72
2022/06/12 00:51:03;;;;;;;0.20;0.20;;;19.70;99.90;;;;;;5014058;28;20033;-72
2022/06/12 00:53:39;;;;;;;1.85;1.63;;;19.30;99.90;;;;;;5012489;28;20041;-72
2022/06/12 00:56:27;;;;;;;0.55;0.52;;;19.30;99.90;;;;;;5012892;28;20149;-72
2022/06/12 00:58:58;;;;;;;0.35;0.35;;;19.20;99.90;;;;;;5011811;28;20029;-73
2022/06/12 01:01:32;;;;;;;0.82;0.82;;;19.20;99.90;;;;;;5014098;28;20125;-72
2022/06/12 01:06:46;;;;;;;0.38;0.28;;;19.50;99.90;;;;;;5006003;28;20036;-73
2022/06/12 01:09:24;;;;;;;0.60;0.47;;;19.70;99.90;;;;;;5011595;28;20030;-72
2022/06/12 01:11:53;;;;;;;0.52;0.38;;;19.80;99.90;;;;;;5012338;28;20072;-72
2022/06/12 01:14:25;;;;;;;2.35;0.93;;;19.80;99.90;;;;;;5012468;28;20125;-72
2022/06/12 01:16:53;;;;;;;0.20;0.13;;;19.80;99.90;;;;;;5012532;28;20021;-72
2022/06/12 01:19:31;;;;;;;0.17;0.17;;;19.70;99.90;;;;;;5011497;28;20072;-73
2022/06/12 01:22:40;;;;;;;0.52;0.52;;;19.50;99.90;;;;;;5011952;28;20034;-72
2022/06/12 01:25:50;;;;;;;1.17;0.85;;;19.40;99.90;;;;;;4998395;28;20453;-72
2022/06/12 01:28:56;;;;;;;0.22;0.22;;;19.10;99.90;;;;;;5012402;28;20549;-73
2022/06/12 01:31:48;;;;;;;1.77;0.60;;;18.90;99.90;;;;;;5013223;28;20034;-73
2022/06/12 01:34:34;;;;;;;0.10;0.10;;;18.80;99.90;;;;;;5011968;28;20525;-73
2022/06/12 01:37:37;;;;;;;0.30;0.30;;;18.80;99.90;;;;;;5011586;28;20034;-73
2022/06/12 01:40:24;;;;;;;0.45;0.32;;;18.60;99.90;;;;;;5011050;28;20097;-73
2022/06/12 01:43:12;;;;;;;0.60;0.45;;;18.30;99.90;;;;;;5012208;28;20060;-72
2022/06/12 01:45:43;;;;;;;0.57;0.57;;;17.80;99.90;;;;;;5011933;28;20052;-72
2022/06/12 01:48:54;;;;;;;0.68;0.15;;;17.80;99.90;;;;;;5013020;28;20482;-72
2022/06/12 01:52:06;;;;;;;0.28;0.28;;;17.70;99.90;;;;;;5013134;28;20192;-72
2022/06/12 01:54:57;;;;;;;0.93;0.70;;;17.80;99.90;;;;;;5008509;23;20541;-67
2022/06/12 01:57:34;;;;;;;0.73;0.73;;;18.00;99.90;;;;;;4966386;28;20039;-67
2022/06/12 02:00:11;;;;;;;0.20;0.20;;;18.30;99.90;;;;;;4987295;28;20043;-68
2022/06/12 02:02:59;;;;;;;0.15;0.15;;;18.30;99.90;;;;;;4973537;28;20027;-65
2022/06/12 02:05:38;;;;;;;0.57;0.40;;;18.00;99.90;;;;;;4987327;28;20606;-67
2022/06/12 02:08:17;;;;;;;0.13;0.13;;;18.00;99.90;;;;;;4972207;28;20034;-67
2022/06/12 02:14:09;;;;;;;0.57;0.45;;;17.20;99.90;;;;;;4942713;29;20042;-66
2022/06/12 02:16:41;;;;;;;0.95;0.43;;;17.20;99.90;;;;;;4970130;28;20039;-66
2022/06/12 02:19:15;;;;;;;0.00;0.00;;;17.30;99.90;;;;;;4971746;28;20042;-67
2022/06/12 02:22:15;;;;;;;0.10;0.10;;;17.40;99.90;;;;;;4972122;28;20027;-66
2022/06/12 02:24:50;;;;;;;0.03;0.03;;;17.40;99.90;;;;;;4973041;28;20106;-65
2022/06/12 02:27:29;;;;;;;7.47;0.70;;;17.60;99.90;;;;;;4973383;28;20026;-67
2022/06/12 02:30:11;;;;;;;1.08;0.63;;;17.70;99.90;;;;;;4972446;28;20038;-66
2022/06/12 02:32:46;;;;;;;0.30;0.25;;;17.70;99.90;;;;;;4971943;28;20368;-67
2022/06/12 02:35:24;;;;;;;0.30;0.30;;;17.70;99.90;;;;;;4971748;28;20038;-66
2022/06/12 02:38:07;;;;;;;0.85;0.40;;;17.90;99.90;;;;;;4971935;28;20109;-67
2022/06/12 02:40:40;;;;;;;0.55;0.38;;;17.90;99.90;;;;;;4971422;28;20035;-67
2022/06/12 02:43:17;;;;;;;0.40;0.40;;;17.80;99.90;;;;;;4971502;28;20077;-66
2022/06/12 02:46:09;;;;;;;0.35;0.35;;;17.70;99.90;;;;;;4971492;28;20484;-66
2022/06/12 02:48:36;;;;;;;0.15;0.15;;;17.60;99.90;;;;;;4970660;28;20050;-66
2022/06/12 02:51:23;;;;;;;0.28;0.28;;;17.50;99.90;;;;;;4971270;28;20030;-67
2022/06/12 02:54:09;;;;;;;0.20;0.20;;;17.40;99.90;;;;;;4972712;28;20098;-67
2022/06/12 02:56:50;;;;;;;0.05;0.05;;;17.30;99.90;;;;;;4972878;28;20035;-67
2022/06/12 02:59:46;;;;;;;0.20;0.20;;;17.30;99.90;;;;;;4972158;28;20039;-66
2022/06/12 03:02:33;;;;;;;1.60;0.47;;;17.20;99.90;;;;;;4972585;28;20038;-66
2022/06/12 03:05:26;;;;;;;1.98;0.55;;;16.90;99.90;;;;;;4972744;28;20027;-67
2022/06/12 03:08:14;;;;;;;0.20;0.20;;;16.60;99.90;;;;;;4972476;28;20041;-67
2022/06/12 03:11:23;;;;;;;0.57;0.57;;;16.60;99.90;;;;;;4970398;28;20278;-67
2022/06/12 03:13:52;;;;;;;0.10;0.10;;;16.80;99.90;;;;;;4938905;29;20114;-67
2022/06/12 03:16:31;;;;;;;0.00;0.00;;;17.00;99.90;;;;;;4946845;29;20404;-67
2022/06/12 03:19:08;;;;;;;0.30;0.10;;;17.10;99.90;;;;;;4951106;29;20046;-67
2022/06/12 03:22:21;;;;;;;2.00;1.27;;;17.20;99.90;;;;;;4953231;28;20059;-67
2022/06/12 03:25:30;;;;;;;0.40;0.40;;;17.30;99.90;;;;;;4951673;29;20027;-67
2022/06/12 03:27:56;;;;;;;0.40;0.40;;;17.40;99.90;;;;;;4951916;29;20034;-66
2022/06/12 03:30:40;;;;;;;1.08;0.80;;;17.40;99.90;;;;;;4952096;28;20035;-66
2022/06/12 03:33:18;;;;;;;0.10;0.10;;;17.60;99.90;;;;;;4952697;28;20027;-66
2022/06/12 03:36:00;;;;;;;0.15;0.15;;;17.70;99.90;;;;;;4951515;29;20078;-66
2022/06/12 03:38:52;;;;;;;0.20;0.20;;;17.80;99.90;;;;;;4952702;29;20031;-67
2022/06/12 03:41:43;;;;;;;1.08;0.57;;;18.00;99.90;;;;;;4952709;29;20035;-66
2022/06/12 03:44:10;;;;;;;0.15;0.15;;;17.80;99.90;;;;;;4952602;28;20035;-66
2022/06/12 03:47:23;;;;;;;0.00;0.00;;;17.60;99.90;;;;;;4952735;28;20065;-66
2022/06/12 03:50:17;;;;;;;0.20;0.20;;;17.20;99.90;;;;;;4918720;29;20116;-66
2022/06/12 03:53:19;;;;;;;0.00;0.00;;;17.10;99.90;;;;;;4950230;29;20582;-66
2022/06/12 03:59:06;;;;;;;0.13;0.13;;;17.00;99.90;;;;;;4950859;29;20034;-66
2022/06/12 04:01:32;;;;;;;0.93;0.63;;;16.90;99.90;;;;;;4951875;29;20027;-66
2022/06/12 04:04:00;;;;;;;0.60;0.60;;;17.00;99.90;;;;;;4952385;28;20052;-66
2022/06/12 04:06:30;;;;;;;0.20;0.20;;;17.00;99.90;;;;;;4951598;29;20027;-66
2022/06/12 04:09:05;;;;;;;0.15;0.15;;;17.20;99.90;;;;;;4950498;29;20118;-66
2022/06/12 04:11:37;;;;;;;0.30;0.30;;;17.50;99.90;;;;;;4951622;28;20027;-66
2022/06/12 04:14:06;;;;;;;0.00;0.00;;;17.70;99.90;;;;;;4951047;29;20031;-66
2022/06/12 04:16:49;;;;;;;1.30;1.10;;;17.80;99.90;;;;;;4969907;28;20030;-66
2022/06/12 04:19:19;;;;;;;2.55;1.65;;;17.90;99.90;;;;;;4970830;28;20225;-66
2022/06/12 04:22:14;;;;;;;0.03;0.03;;;18.10;99.90;;;;;;4970275;28;20034;-67
2022/06/12 04:25:16;;;;;;;0.03;0.03;;;18.20;99.90;;;;;;4970357;28;20503;-66
2022/06/12 04:27:44;;;;;;;0.10;0.10;;;18.30;99.90;;;;;;4970478;28;20384;-66
2022/06/12 04:30:27;;;;;;;0.95;0.88;;;18.40;99.90;;;;;;4969468;28;20438;-66
2022/06/12 04:33:34;;;;;;;0.00;0.00;;;18.40;99.90;;;;;;4970296;28;20037;-66
2022/06/12 04:36:03;;;;;;;0.80;0.80;;;18.30;99.90;;;;;;4957350;28;20050;-66
2022/06/12 04:38:31;;;;;;;2.05;1.25;;;18.40;99.90;;;;;;4970782;28;20031;-66
2022/06/12 04:40:57;;;;;;;0.22;0.22;;;18.50;99.90;;;;;;4953776;28;20067;-66
2022/06/12 04:43:23;;;;;;;0.30;0.30;;;18.60;99.90;;;;;;4986315;28;20417;-66
2022/06/12 04:45:50;;;;;;;0.32;0.32;;;18.70;99.90;;;;;;4970319;28;20479;-66
2022/06/12 04:48:34;;;;;;;0.00;0.00;;;18.40;99.90;;;;;;4970358;28;20471;-66
2022/06/12 04:51:00;;;;;;;0.00;0.00;;;18.50;99.90;;;;;;4970309;28;20070;-66
2022/06/12 04:53:26;;;;;;;0.00;0.00;;;18.70;99.90;;;;;;4971319;28;20114;-66
2022/06/12 04:55:51;;;;;;;0.88;0.68;;;18.60;99.90;;;;;;4971158;28;20046;-66
2022/06/12 04:58:17;;;;;;;0.15;0.15;;;18.70;99.90;;;;;;4970119;28;20037;-66
2022/06/12 05:00:44;;;;;;;0.55;0.45;;;18.80;99.90;;;;;;4970284;28;20086;-66
2022/06/12 05:03:12;;;;;;;0.43;0.25;;;18.90;99.90;;;;;;4969809;28;20030;-66
2022/06/12 05:05:39;;;;;;;0.00;0.00;;;19.00;99.90;;;;;;4985857;28;20546;-66
2022/06/12 05:08:05;;;;;;;1.02;0.73;;;19.10;99.90;;;;;;4972339;28;20089;-68
2022/06/12 05:10:31;;;;;;;0.10;0.10;;;19.20;99.90;;;;;;4973871;28;20062;-68
2022/06/12 05:12:57;;;;;;;0.00;0.00;;;19.30;99.90;;;;;;4973302;28;20047;-67
2022/06/12 05:15:23;;;;;;;0.20;0.20;;;19.40;99.90;;;;;;4965008;28;20399;-67
2022/06/12 05:17:50;;;;;;;2.28;0.55;;;19.40;99.90;;;;;;4955501;28;20035;-68
2022/06/12 05:20:26;;;;;;;0.13;0.13;;;19.50;99.90;;;;;;4953183;29;20027;-67
2022/06/12 05:22:53;;;;;;;0.10;0.10;;;19.50;99.90;;;;;;4953767;29;20066;-70
2022/06/12 05:25:20;;;;;;;0.17;0.13;;;19.70;99.90;;;;;;4953421;29;20539;-67
2022/06/12 05:27:47;;;;;;;0.10;0.10;;;19.90;99.90;;;;;;4953439;29;20027;-68
2022/06/12 05:30:19;;;;;;;0.00;0.00;;;20.00;99.90;;;;;;4953012;28;20590;-66
2022/06/12 05:32:46;;;;;;;0.10;0.10;;;20.10;99.90;;;;;;4954894;28;20063;-67
2022/06/12 05:35:13;;;;;;;0.85;0.20;;;20.00;99.90;;;;;;4954829;29;20454;-67
2022/06/12 05:37:39;;;;;;;0.47;0.43;;;20.00;99.90;;;;;;4955151;28;20381;-68
2022/06/12 05:40:10;;;;;;;0.00;0.00;;;19.80;99.90;;;;;;4954052;28;20373;-63
2022/06/12 05:42:39;;;;;;;0.13;0.13;;;19.90;99.90;;;;;;4981392;28;20031;-64
2022/06/12 05:45:12;;;;;;;0.52;0.43;;;20.00;99.90;;;;;;4971957;28;20042;-63
2022/06/12 05:47:54;;;;;;;0.00;0.00;;;20.00;99.90;;;;;;4970998;28;20570;-63
2022/06/12 05:50:25;;;;;;;0.98;0.85;;;20.00;99.90;;;;;;4972862;28;20051;-63
2022/06/12 05:52:51;;;;;;;0.70;0.70;;;19.90;99.90;;;;;;4972588;28;20035;-63
2022/06/12 05:55:16;;;;;;;0.00;0.00;;;20.00;99.90;;;;;;4972850;28;20043;-63
2022/06/12 05:57:42;;;;;;;0.00;0.00;;;20.20;99.90;;;;;;4973584;28;20187;-63
2022/06/12 06:00:17;;;;;;;0.32;0.32;;;20.30;99.90;;;;;;4971355;28;20403;-63
2022/06/12 06:02:44;;;;;;;0.10;0.10;;;20.30;99.90;;;;;;4972956;28;20507;-63
2022/06/12 06:05:11;;;;;;;0.10;0.10;;;20.40;99.90;;;;;;4972618;28;20161;-62
2022/06/12 06:07:37;;;;;;;0.65;0.65;;;20.50;99.90;;;;;;4973815;28;20023;-63
2022/06/12 06:10:06;;;;;;;0.47;0.47;;;20.70;99.90;;;;;;4970958;28;20122;-63
2022/06/12 06:12:31;;;;;;;0.32;0.30;;;20.80;99.90;;;;;;4973046;28;20037;-63
2022/06/12 06:14:57;;;;;;;0.00;0.00;;;20.90;99.90;;;;;;4973392;28;20031;-63
2022/06/12 06:17:23;;;;;;;2.35;0.80;;;21.00;99.90;;;;;;4973111;28;20499;-62
2022/06/12 06:19:49;;;;;;;0.70;0.43;;;21.10;99.90;;;;;;4972416;28;20395;-63
2022/06/12 06:22:18;;;;;;;0.70;0.70;;;21.20;99.90;;;;;;4973201;28;20183;-63
2022/06/12 06:24:47;;;;;;;0.13;0.13;;;21.20;99.90;;;;;;4971840;28;20034;-63
2022/06/12 06:27:14;;;;;;;0.05;0.00;;;21.00;99.90;;;;;;4972750;28;20587;-63
2022/06/12 06:29:41;;;;;;;0.77;0.55;;;21.10;99.90;;;;;;4971111;28;20137;-63
2022/06/12 06:32:09;;;;;;;0.60;0.52;;;21.20;99.90;;;;;;4971751;28;20027;-63
2022/06/12 06:34:40;;;;;;;0.22;0.20;;;21.40;99.90;;;;;;4972956;28;20023;-63
2022/06/12 06:37:09;;;;;;;1.20;0.80;;;21.60;99.90;;;;;;4971731;28;20130;-63
2022/06/12 06:39:35;;;;;;;0.08;0.08;;;22.00;99.90;;;;;;4970555;28;20431;-63
2022/06/12 06:42:01;;;;;;;0.40;0.40;;;22.30;99.90;;;;;;4971290;28;20479;-63
2022/06/12 06:47:11;;;;;;;0.00;0.00;;;22.80;99.90;;;;;;4971817;28;20033;-64
2022/06/12 06:49:38;;;;;;;0.03;0.00;;;22.80;99.90;;;;;;4970461;28;20499;-63
2022/06/12 06:52:04;;;;;;;0.45;0.32;;;22.90;99.90;;;;;;4971891;28;20038;-64
2022/06/12 06:54:30;;;;;;;0.90;0.30;;;23.10;99.90;;;;;;4972626;28;20431;-64
2022/06/12 06:56:55;;;;;;;0.20;0.20;;;23.20;99.90;;;;;;4972291;28;20118;-65
2022/06/12 06:59:22;;;;;;;0.17;0.15;;;23.20;99.90;;;;;;4970604;28;20034;-64
2022/06/12 07:01:47;;;;;;;0.10;0.10;;;23.20;99.90;;;;;;4971211;28;20027;-64
2022/06/12 07:04:13;;;;;;;0.65;0.20;;;23.40;99.90;;;;;;4972577;28;20035;-64
2022/06/12 07:06:40;;;;;;;1.10;0.55;;;23.10;99.90;;;;;;4972249;28;20265;-63
2022/06/12 07:09:06;;;;;;;5.65;0.93;;;23.10;99.90;;;;;;4970370;28;20475;-64
2022/06/12 07:11:33;;;;;;;1.70;0.82;;;22.80;99.90;;;;;;4970258;28;20376;-64
2022/06/12 07:13:59;;;;;;;0.30;0.30;;;22.70;99.90;;;;;;4972495;28;20038;-64
2022/06/12 07:16:28;;;;;;;0.20;0.20;;;22.80;99.90;;;;;;4971014;28;20031;-66
2022/06/12 07:18:54;;;;;;;3.50;0.95;;;22.90;99.90;;;;;;4971443;28;20042;-64
2022/06/12 07:21:20;;;;;;;0.00;0.00;;;22.90;99.90;;;;;;4970980;28;20031;-64
2022/06/12 07:23:47;;;;;;;0.00;0.00;;;22.90;99.90;;;;;;4971984;28;20110;-64
2022/06/12 07:26:28;;;;;;;0.50;0.30;;;23.00;99.90;;;;;;4971956;28;20513;-64
2022/06/12 07:28:53;;;;;;;;;;;22.40;99.90;;;;;;4970315;28;20046;-64
2022/06/12 07:31:21;;;;;;;0.20;0.20;;;22.70;99.90;;;;;;4971070;28;20341;-64
2022/06/12 07:33:47;;;;;;;0.15;0.15;;;22.70;99.90;;;;;;4986503;28;20035;-64
2022/06/12 07:36:15;;;;;;;0.55;0.55;;;22.70;99.90;;;;;;4971551;28;20039;-64
2022/06/12 07:38:41;;;;;;;0.30;0.30;;;22.90;99.90;;;;;;4969309;28;20106;-64
2022/06/12 07:41:11;;;;;;;0.65;0.65;;;22.90;99.90;;;;;;4976459;28;20058;-64
2022/06/12 07:43:37;;;;;;;0.47;0.47;;;22.50;99.90;;;;;;4971729;28;20109;-64
2022/06/12 07:46:07;;;;;;;0.52;0.47;;;22.50;99.90;;;;;;4969880;28;20045;-64
2022/06/12 07:48:33;;;;;;;0.00;0.00;;;22.30;99.90;;;;;;4971257;28;20133;-65
2022/06/12 07:51:03;;;;;;;0.32;0.32;;;22.50;99.90;;;;;;4971733;28;20038;-65
2022/06/12 07:53:31;;;;;;;0.40;0.30;;;22.80;99.90;;;;;;4970331;28;20113;-65
2022/06/12 07:55:58;;;;;;;0.10;0.10;;;22.80;99.90;;;;;;4970624;28;20039;-64
2022/06/12 07:58:24;;;;;;;0.00;0.00;;;23.00;99.90;;;;;;4971056;28;20109;-63
2022/06/12 08:00:58;;;;;;;0.00;0.00;;;23.20;99.90;;;;;;4970155;28;20480;-62
2022/06/12 08:03:28;;;;;;;0.57;0.57;;;23.30;99.90;;;;;;4970485;28;20023;-62
2022/06/12 08:05:54;;;;;;;0.55;0.47;;;23.40;99.90;;;;;;4971578;28;20027;-63
2022/06/12 08:08:20;;;;;;;0.10;0.10;;;23.30;99.90;;;;;;4970393;28;20043;-63
2022/06/12 08:10:46;;;;;;;0.00;0.00;;;22.90;99.90;;;;;;4973054;28;20225;-63
2022/06/12 08:13:12;;;;;;;0.08;0.08;;;23.10;99.90;;;;;;4989755;28;20030;-63
2022/06/12 08:15:44;;;;;;;3.97;2.42;;;23.30;99.90;;;;;;4990658;28;20037;-65
2022/06/12 08:18:10;;;;;;;0.20;0.20;;;23.60;99.90;;;;;;4990761;28;20069;-64
2022/06/12 08:20:38;;;;;;;0.00;0.00;;;23.80;99.90;;;;;;4990198;28;20034;-65
2022/06/12 08:23:29;;;;;;;0.15;0.15;;;23.90;99.90;;;;;;4989594;28;20030;-64
2022/06/12 08:26:18;;;;;;;1.13;0.82;;;23.90;99.90;;;;;;4990849;28;20030;-65
2022/06/12 08:29:07;;;;;;;1.48;0.75;;;23.90;99.90;;;;;;4990209;28;20031;-65
2022/06/12 08:31:54;;;;;;;1.67;1.25;;;24.20;99.90;;;;;;4989817;28;20045;-65
2022/06/12 08:34:27;;;;;;;0.38;0.30;;;24.30;99.90;;;;;;4990681;28;20070;-65
2022/06/12 08:36:59;;;;;;;0.00;0.00;;;24.30;99.90;;;;;;4989431;28;20066;-65
2022/06/12 08:39:26;;;;;;;0.08;0.08;;;24.30;99.90;;;;;;4988564;28;20081;-65
2022/06/12 08:41:57;;;;;;;0.47;0.47;;;24.30;99.90;;;;;;4978821;28;20382;-65
2022/06/12 08:44:47;;;;;;;0.15;0.15;;;24.60;99.90;;;;;;4973472;28;20558;-65
2022/06/12 08:47:58;;;;;;;6.83;1.33;;;24.60;99.90;;;;;;4974047;28;20026;-65
2022/06/12 08:50:36;;;;;;;0.10;0.10;;;24.80;99.90;;;;;;4967768;28;20297;-65
2022/06/12 08:53:32;;;;;;;0.40;0.20;;;25.00;99.30;;;;;;4973749;28;20039;-65
2022/06/12 08:56:17;;;;;;;0.38;0.30;;;25.00;99.00;;;;;;4974574;28;20039;-65
2022/06/12 08:59:25;;;;;;;0.15;0.15;;;25.20;98.80;;;;;;4972820;28;20065;-66
2022/06/12 09:01:50;;;;;;;0.10;0.10;;;25.30;98.80;;;;;;4973169;28;20510;-65
2022/06/12 09:04:20;;;;;;;0.00;0.00;;;25.50;98.10;;;;;;4974592;28;20041;-65
2022/06/12 09:06:56;;;;;;;0.28;0.28;;;25.70;97.60;;;;;;4974337;28;20039;-65
2022/06/12 09:09:42;;;;;;;0.00;0.00;;;25.80;97.10;;;;;;4974188;28;20514;-65
2022/06/12 09:12:16;;;;;;;0.30;0.30;;;26.00;96.50;;;;;;4973592;28;20034;-65
2022/06/12 09:15:53;;;;;;;1.10;0.70;;;26.20;96.00;;;;;;4973446;28;20027;-65
2022/06/12 09:18:51;;;;;;;0.08;0.08;;;26.20;95.50;;;;;;4944400;29;20032;-65
2022/06/12 09:21:29;;;;;;;0.17;0.10;;;26.30;95.30;;;;;;4942854;29;20115;-65
2022/06/12 09:24:16;;;;;;;0.10;0.00;;;26.10;95.10;;;;;;4954542;28;20093;-65
2022/06/12 09:27:16;;;;;;;0.10;0.10;;;26.30;95.10;;;;;;4954778;28;20063;-65
2022/06/12 09:30:04;;;;;;;0.17;0.17;;;26.40;95.40;;;;;;4953218;28;20042;-65
2022/06/12 09:32:54;;;;;;;0.73;0.35;;;26.20;95.10;;;;;;4937532;29;20035;-65
2022/06/12 09:35:52;;;;;;;0.10;0.00;;;26.20;94.90;;;;;;4954986;28;20055;-66
2022/06/12 09:38:35;;;;;;;0.28;0.28;;;26.50;94.50;;;;;;4961206;28;20024;-66
2022/06/12 09:41:07;;;;;;;0.38;0.38;;;26.50;94.10;;;;;;4964689;28;20553;-67
2022/06/12 09:44:21;;;;;;;0.38;0.28;;;26.50;93.90;;;;;;4964828;28;20038;-67
2022/06/12 09:47:14;;;;;;;0.00;0.00;;;26.40;93.80;;;;;;4965457;28;20035;-67
2022/06/12 09:50:30;;;;;;;0.20;0.20;;;26.40;93.90;;;;;;4972030;28;20070;-65
2022/06/12 09:53:21;;;;;;;0.70;0.70;;;26.50;94.10;;;;;;4970073;28;20125;-65
2022/06/12 09:55:56;;;;;;;4.22;0.70;;;26.60;94.10;;;;;;4973322;28;20047;-72
2022/06/12 09:58:38;;;;;;;0.00;0.00;;;26.70;93.80;;;;;;4972693;28;20034;-72
2022/06/12 10:01:18;;;;;;;0.10;0.10;;;26.70;94.10;;;;;;4972193;28;20039;-72
2022/06/12 10:04:07;;;;;;;0.43;0.43;;;26.90;93.80;;;;;;4973925;28;20413;-72
2022/06/12 10:06:58;;;;;;;0.17;0.10;;;27.10;93.60;;;;;;4972507;28;20037;-68
2022/06/12 10:09:43;;;;;;;0.77;0.77;;;26.90;92.80;;;;;;4971961;28;20039;-72
2022/06/12 10:12:24;;;;;;;0.30;0.30;;;26.90;93.10;;;;;;4972085;28;20019;-71
2022/06/12 10:15:02;;;;;;;0.10;0.10;;;26.90;93.20;;;;;;4972165;28;20039;-72
2022/06/12 10:17:37;;;;;;;0.65;0.45;;;27.00;93.30;;;;;;4972061;28;20038;-70
2022/06/12 10:20:29;;;;;;;0.28;0.20;;;27.30;92.60;;;;;;4971687;28;20434;-73
2022/06/12 10:22:57;;;;;;;0.10;0.10;;;27.30;92.30;;;;;;4973134;28;20105;-72
2022/06/12 10:25:41;;;;;;;2.17;0.15;;;27.60;92.30;;;;;;4971981;28;20073;-72
2022/06/12 10:28:29;;;;;;;0.38;0.38;;;27.60;92.20;;;;;;4971786;28;20035;-72
2022/06/12 10:31:20;;;;;;;0.00;0.00;;;27.70;92.00;;;;;;4971753;28;20038;-72
2022/06/12 10:33:51;;;;;;;0.10;0.10;;;28.00;91.70;;;;;;4971577;28;20035;-73
2022/06/12 10:36:34;;;;;;;0.10;0.05;;;27.60;91.60;;;;;;4973062;28;20542;-75
2022/06/12 10:39:22;;;;;;;0.22;0.17;;;27.70;92.00;;;;;;4971129;28;20664;-74
2022/06/12 10:42:00;;;;;;;0.00;0.00;;;27.80;91.40;;;;;;4984568;28;20038;-72
2022/06/12 10:44:52;;;;;;;0.00;0.00;;;27.90;91.00;;;;;;4992382;28;20479;-73
2022/06/12 10:47:31;;;;;;;0.20;0.20;;;27.80;91.30;;;;;;4992696;28;20037;-73
2022/06/12 10:50:31;;;;;;;0.20;0.20;;;27.90;91.10;;;;;;4990186;28;20490;-72
2022/06/12 10:53:02;;;;;;;0.38;0.32;;;28.20;91.20;;;;;;4992073;28;20085;-73
2022/06/12 10:55:52;;;;;;;0.30;0.20;;;28.30;90.60;;;;;;4990456;28;20050;-73
2022/06/12 10:58:58;;;;;;;2.43;0.50;;;28.40;90.70;;;;;;4992162;28;20041;-75
2022/06/12 11:02:02;;;;;;;4.40;1.80;;;28.70;90.30;;;;;;4991858;28;20285;-73
2022/06/12 11:04:43;;;;;;;1.25;0.28;;;29.10;90.20;;;;;;4990172;28;20125;-73
2022/06/12 11:07:33;;;;;;;0.35;0.15;;;29.00;89.50;;;;;;4992211;28;20117;-73
2022/06/12 11:10:17;;;;;;;0.10;0.10;;;29.30;85.70;;;;;;4991144;28;20030;-74
2022/06/12 11:13:15;;;;;;;0.60;0.60;;;29.40;84.70;;;;;;4991873;28;20077;-74
2022/06/12 11:16:17;;;;;;;0.10;0.10;;;29.60;83.90;;;;;;4986494;28;20055;-74
2022/06/12 11:19:00;;;;;;;0.25;0.20;;;29.40;83.20;;;;;;4991031;28;20057;-70
2022/06/12 11:22:04;;;;;;;0.22;0.22;;;29.30;83.20;;;;;;4990319;28;20022;-69
2022/06/12 11:24:48;;;;;;;0.03;0.03;;;29.20;82.50;;;;;;4990178;28;20089;-69
2022/06/12 11:28:10;;;;;;;0.10;0.10;;;29.10;83.50;;;;;;4991620;28;20030;-69
2022/06/12 11:30:58;;;;;;;0.10;0.10;;;29.20;84.40;;;;;;4991076;28;20038;-69
2022/06/12 11:33:48;;;;;;;0.00;0.00;;;29.10;84.50;;;;;;4991476;28;20037;-69
2022/06/12 11:36:36;;;;;;;0.15;0.10;;;29.50;82.60;;;;;;4991617;28;20433;-68
2022/06/12 11:39:27;;;;;;;0.20;0.20;;;29.70;80.70;;;;;;4989133;28;20084;-69
2022/06/12 11:42:36;;;;;;;1.65;0.43;;;30.00;80.50;;;;;;4991123;28;20038;-69
2022/06/12 11:45:10;;;;;;;0.10;0.10;;;30.10;80.30;;;;;;4990738;28;20046;-67
2022/06/12 11:48:04;;;;;;;0.80;0.52;;;29.90;80.60;;;;;;4986089;28;20105;-68
2022/06/12 11:50:48;;;;;;;0.10;0.10;;;30.20;80.80;;;;;;4971117;28;20085;-68
2022/06/12 11:53:52;;;;;;;0.10;0.10;;;30.40;80.80;;;;;;4970562;28;20110;-70
2022/06/12 11:56:30;;;;;;;0.40;0.13;;;30.40;79.00;;;;;;4971851;28;20089;-69
2022/06/12 11:59:28;;;;;;;0.20;0.20;;;30.20;79.70;;;;;;4971079;28;20380;-68
2022/06/12 12:02:12;;;;;;;0.10;0.10;;;30.10;80.10;;;;;;4967744;28;20039;-69
2022/06/12 12:05:21;;;;;;;0.45;0.45;;;30.30;80.90;;;;;;4967174;28;20027;-70
2022/06/12 12:08:17;;;;;;;0.20;0.10;;;31.10;79.60;;;;;;4952256;28;20039;-73
2022/06/12 12:10:59;;;;;;;0.10;0.10;;;30.80;78.60;;;;;;4966832;28;20058;-70
2022/06/12 12:13:33;;;;;;;0.30;0.30;;;31.30;77.00;;;;;;4965412;28;20035;-70
2022/06/12 12:16:06;;;;;;;0.10;0.10;;;31.50;76.00;;;;;;4952114;28;20043;-69
2022/06/12 12:18:53;;;;;;;0.10;0.10;;;30.80;77.90;;;;;;4954629;29;20023;-71
2022/06/12 12:21:35;;;;;;;0.52;0.52;;;30.80;74.30;;;;;;4955028;29;20059;-70
2022/06/12 12:24:05;;;;;;;0.22;0.20;;;30.60;75.30;;;;;;4956182;28;20070;-71
2022/06/12 12:26:44;;;;;;;0.10;0.10;;;30.50;75.50;;;;;;4955159;29;20487;-69
2022/06/12 12:29:15;;;;;;;0.22;0.15;;;30.30;74.40;;;;;;4954933;28;20110;-70
2022/06/12 12:31:45;;;;;;;0.50;0.43;;;29.80;75.10;;;;;;4955925;28;20068;-69
2022/06/12 12:34:12;;;;;;;0.10;0.10;;;29.60;76.20;;;;;;4954600;29;20407;-69
2022/06/12 12:42:35;;;;;;;0.60;0.32;;;30.50;78.50;;;;;;4987817;28;20110;-69
2022/06/12 12:45:14;;;;;;;0.00;0.00;;;31.10;76.40;;;;;;4994235;28;20404;-69
2022/06/12 12:47:40;;;;;;;0.00;0.00;;;31.50;75.80;;;;;;4994438;28;20023;-73
2022/06/12 12:50:15;;;;;;;0.00;0.00;;;31.80;75.50;;;;;;4993425;28;20066;-68
2022/06/12 12:52:53;;;;;;;0.10;0.10;;;32.00;74.30;;;;;;4993073;28;20038;-71
2022/06/12 12:55:38;;;;;;;0.20;0.10;;;32.40;73.80;;;;;;4993853;28;20041;-70
2022/06/12 12:58:23;;;;;;;0.10;0.10;;;32.50;72.90;;;;;;4992710;28;20034;-72
2022/06/12 13:00:49;;;;;;;0.57;0.30;;;32.70;73.10;;;;;;4991946;28;20426;-72
2022/06/12 13:03:31;;;;;;;4.47;0.35;;;33.00;71.90;;;;;;4993911;28;20104;-72
2022/06/12 13:06:11;;;;;;;0.10;0.10;;;32.90;71.00;;;;;;4993817;28;20064;-69
2022/06/12 13:09:04;;;;;;;0.53;0.10;;;32.40;72.10;;;;;;4992486;28;20569;-69
2022/06/12 13:11:59;;;;;;;0.35;0.10;;;32.50;72.00;;;;;;4993942;28;20110;-70
2022/06/12 13:15:24;;;;;;;0.10;0.10;;;32.70;71.10;;;;;;4992684;28;20398;-70
2022/06/12 13:18:15;;;;;;;2.05;0.77;;;32.50;71.60;;;;;;5008981;28;20031;-69
2022/06/12 13:21:01;;;;;;;0.47;0.13;;;32.90;70.80;;;;;;4992112;28;20081;-70
2022/06/12 13:24:20;;;;;;;0.40;0.40;;;32.60;68.80;;;;;;4992206;28;20372;-70
2022/06/12 13:26:49;;;;;;;2.53;1.52;;;32.80;69.10;;;;;;4993500;28;20034;-71
2022/06/12 13:29:19;;;;;;;4.70;0.30;;;33.00;68.90;;;;;;4992120;28;20035;-69
2022/06/12 13:32:01;;;;;;;1.25;0.85;;;33.50;67.40;;;;;;4992232;28;20022;-68
2022/06/12 13:34:30;;;;;;;0.05;0.05;;;33.30;66.60;;;;;;4976146;28;20034;-71
2022/06/12 13:36:58;;;;;;;0.10;0.05;;;32.60;66.20;;;;;;4992498;28;20390;-70
2022/06/12 13:39:41;;;;;;;0.32;0.28;;;32.30;67.70;;;;;;4991312;28;20041;-68
2022/06/12 13:42:15;;;;;;;0.57;0.28;;;32.50;67.50;;;;;;4971441;28;20395;-70
2022/06/12 13:44:47;;;;;;;0.45;0.28;;;32.60;67.60;;;;;;4937414;29;20035;-69
2022/06/12 13:47:19;;;;;;;0.10;0.00;;;31.70;69.50;;;;;;4953611;29;20034;-69
2022/06/12 13:49:54;;;;;;;0.25;0.25;;;32.30;68.60;;;;;;4953958;29;20054;-69
2022/06/12 13:52:29;;;;;;;0.00;0.00;;;32.40;68.40;;;;;;4954880;29;20122;-69
2022/06/12 13:54:55;;;;;;;1.20;0.30;;;32.20;69.50;;;;;;4954151;29;20118;-69
2022/06/12 13:57:37;;;;;;;0.52;0.28;;;32.20;69.10;;;;;;4954459;28;20122;-70
2022/06/12 14:00:34;;;;;;;0.08;0.08;;;32.00;69.90;;;;;;4952215;29;20035;-68
2022/06/12 14:03:00;;;;;;;0.20;0.10;;;31.90;70.40;;;;;;4973422;28;20560;-68
2022/06/12 14:05:34;;;;;;;0.05;0.05;;;31.50;70.10;;;;;;4971893;28;20031;-68